sensor_id;sensor_type;location;lat;lon;timestamp;temperature;humidity
29575;DHT22;16507;51.046;6.406;2023-06-22T00:00:47;21.10;99.90
29575;DHT22;16507;51.046;6.406;2023-06-22T00:03:13;21.10;99.90
29575;DHT22;16507;51.046;6.406;2023-06-22T00:05:38;21.10;99.90
29575;DHT22;16507;51.046;6.406;2023-06-22T00:08:04;21.00;99.90
29575;DHT22;16507;51.046;6.406;2023-06-22T00:10:30;21.00;99.90
29575;DHT22;16507;51.046;6.406;2023-06-22T00:12:56;21.00;99.90
29575;DHT22;16507;51.046;6.406;2023-06-22T00:15:22;20.90;99.90
29575;DHT22;16507;51.046;6.406;2023-06-22T00:17:49;20.90;99.90
29575;DHT22;16507;51.046;6.406;2023-06-22T00:20:15;20.90;99.90
29575;DHT22;16507;51.046;6.406;2023-06-22T00:22:42;20.80;99.90
29575;DHT22;16507;51.046;6.406;2023-06-22T00:25:08;20.80;99.90
29575;DHT22;16507;51.046;6.406;2023-06-22T00:27:35;20.80;99.90
29575;DHT22;16507;51.046;6.406;2023-06-22T00:30:01;20.70;99.90
29575;DHT22;16507;51.046;6.406;2023-06-22T00:32:27;20.70;99.90
29575;DHT22;16507;51.046;6.406;2023-06-22T00:34:52;20.60;99.90
29575;DHT22;16507;51.046;6.406;2023-06-22T00:37:18;20.60;99.90
29575;DHT22;16507;51.046;6.406;2023-06-22T00:39:44;20.50;99.90
29575;DHT22;16507;51.046;6.406;2023-06-22T00:42:09;20.50;99.90
29575;DHT22;16507;51.046;6.406;2023-06-22T00:44:36;20.50;99.90
29575;DHT22;16507;51.046;6.406;2023-06-22T00:47:02;20.50;99.90
29575;DHT22;16507;51.046;6.406;2023-06-22T00:49:29;20.50;99.90
29575;DHT22;16507;51.046;6.406;2023-06-22T00:51:55;20.50;99.90
29575;DHT22;16507;51.046;6.406;2023-06-22T00:54:21;20.50;99.90
29575;DHT22;16507;51.046;6.406;2023-06-22T00:56:53;20.50;99.90
29575;DHT22;16507;51.046;6.406;2023-06-22T00:59:20;20.50;99.90
29575;DHT22;16507;51.046;6.406;2023-06-22T01:01:47;20.40;99.90
29575;DHT22;16507;51.046;6.406;2023-06-22T01:04:12;20.50;99.90
29575;DHT22;16507;51.046;6.406;2023-06-22T01:06:45;20.50;99.90
29575;DHT22;16507;51.046;6.406;2023-06-22T01:09:15;20.50;99.90
29575;DHT22;16507;51.046;6.406;2023-06-22T01:11:54;20.50;99.90
29575;DHT22;16507;51.046;6.406;2023-06-22T01:14:24;20.50;99.90
29575;DHT22;16507;51.046;6.406;2023-06-22T01:16:54;20.40;99.90
29575;DHT22;16507;51.046;6.406;2023-06-22T01:19:39;20.40;99.90
29575;DHT22;16507;51.046;6.406;2023-06-22T01:22:08;20.40;99.90
29575;DHT22;16507;51.046;6.406;2023-06-22T01:25:07;20.30;99.90
29575;DHT22;16507;51.046;6.406;2023-06-22T01:27:50;20.30;99.90
29575;DHT22;16507;51.046;6.406;2023-06-22T01:30:19;20.30;99.90
29575;DHT22;16507;51.046;6.406;2023-06-22T01:32:47;20.30;99.90
29575;DHT22;16507;51.046;6.406;2023-06-22T01:35:13;20.30;99.90
29575;DHT22;16507;51.046;6.406;2023-06-22T01:37:40;20.30;99.90
29575;DHT22;16507;51.046;6.406;2023-06-22T01:40:07;20.20;99.90
29575;DHT22;16507;51.046;6.406;2023-06-22T01:42:34;20.10;99.90
29575;DHT22;16507;51.046;6.406;2023-06-22T01:45:00;20.10;99.90
29575;DHT22;16507;51.046;6.406;2023-06-22T01:47:27;20.20;99.90
29575;DHT22;16507;51.046;6.406;2023-06-22T01:49:53;20.20;99.90
29575;DHT22;16507;51.046;6.406;2023-06-22T01:52:19;20.20;99.90
29575;DHT22;16507;51.046;6.406;2023-06-22T01:54:47;20.20;99.90
29575;DHT22;16507;51.046;6.406;2023-06-22T01:57:13;20.20;99.90
29575;DHT22;16507;51.046;6.406;2023-06-22T02:02:10;20.20;99.90
29575;DHT22;16507;51.046;6.406;2023-06-22T02:05:16;20.20;99.90
29575;DHT22;16507;51.046;6.406;2023-06-22T02:07:52;20.20;99.90
29575;DHT22;16507;51.046;6.406;2023-06-22T02:10:21;20.20;99.90
29575;DHT22;16507;51.046;6.406;2023-06-22T02:12:48;20.30;99.90
29575;DHT22;16507;51.046;6.406;2023-06-22T02:15:15;20.30;99.90
29575;DHT22;16507;51.046;6.406;2023-06-22T02:17:42;20.20;99.90
29575;DHT22;16507;51.046;6.406;2023-06-22T02:20:14;20.20;99.90
29575;DHT22;16507;51.046;6.406;2023-06-22T02:22:40;20.20;99.90
29575;DHT22;16507;51.046;6.406;2023-06-22T02:25:06;20.20;99.90
29575;DHT22;16507;51.046;6.406;2023-06-22T02:27:31;20.20;99.90
29575;DHT22;16507;51.046;6.406;2023-06-22T02:29:57;20.20;99.90
29575;DHT22;16507;51.046;6.406;2023-06-22T02:32:23;20.20;99.90
29575;DHT22;16507;51.046;6.406;2023-06-22T02:34:48;20.20;99.90
29575;DHT22;16507;51.046;6.406;2023-06-22T02:37:14;20.20;99.90
29575;DHT22;16507;51.046;6.406;2023-06-22T02:39:40;20.20;99.90
29575;DHT22;16507;51.046;6.406;2023-06-22T02:42:06;20.20;99.90
29575;DHT22;16507;51.046;6.406;2023-06-22T02:44:32;20.20;99.90
29575;DHT22;16507;51.046;6.406;2023-06-22T02:46:57;20.20;99.90
29575;DHT22;16507;51.046;6.406;2023-06-22T02:49:23;20.20;99.90
29575;DHT22;16507;51.046;6.406;2023-06-22T02:51:49;20.20;99.90
29575;DHT22;16507;51.046;6.406;2023-06-22T02:54:15;20.10;99.90
29575;DHT22;16507;51.046;6.406;2023-06-22T02:56:42;20.10;99.90
29575;DHT22;16507;51.046;6.406;2023-06-22T02:59:09;20.10;99.90
29575;DHT22;16507;51.046;6.406;2023-06-22T03:01:36;20.10;99.90
29575;DHT22;16507;51.046;6.406;2023-06-22T03:04:08;20.00;99.90
29575;DHT22;16507;51.046;6.406;2023-06-22T03:06:34;20.00;99.90
29575;DHT22;16507;51.046;6.406;2023-06-22T03:09:04;20.00;99.90
29575;DHT22;16507;51.046;6.406;2023-06-22T03:11:31;20.00;99.90
29575;DHT22;16507;51.046;6.406;2023-06-22T03:13:57;20.00;99.90
29575;DHT22;16507;51.046;6.406;2023-06-22T03:16:22;20.00;99.90
29575;DHT22;16507;51.046;6.406;2023-06-22T03:18:48;19.90;99.90
29575;DHT22;16507;51.046;6.406;2023-06-22T03:21:13;19.90;99.90
29575;DHT22;16507;51.046;6.406;2023-06-22T03:23:41;19.90;99.90
29575;DHT22;16507;51.046;6.406;2023-06-22T03:26:08;19.90;99.90
29575;DHT22;16507;51.046;6.406;2023-06-22T03:28:34;19.90;99.90
29575;DHT22;16507;51.046;6.406;2023-06-22T03:31:00;19.80;99.90
29575;DHT22;16507;51.046;6.406;2023-06-22T03:33:25;19.80;99.90
29575;DHT22;16507;51.046;6.406;2023-06-22T03:35:51;19.80;99.90
29575;DHT22;16507;51.046;6.406;2023-06-22T03:38:17;19.80;99.90
29575;DHT22;16507;51.046;6.406;2023-06-22T03:40:43;19.80;99.90
29575;DHT22;16507;51.046;6.406;2023-06-22T03:43:09;19.80;99.90
29575;DHT22;16507;51.046;6.406;2023-06-22T03:45:34;19.80;99.90
29575;DHT22;16507;51.046;6.406;2023-06-22T03:48:00;19.80;99.90
29575;DHT22;16507;51.046;6.406;2023-06-22T03:50:27;19.90;99.90
29575;DHT22;16507;51.046;6.406;2023-06-22T03:52:52;19.90;99.90
29575;DHT22;16507;51.046;6.406;2023-06-22T03:55:19;19.90;99.90
29575;DHT22;16507;51.046;6.406;2023-06-22T03:57:45;19.90;99.90
29575;DHT22;16507;51.046;6.406;2023-06-22T04:00:11;19.90;99.90
29575;DHT22;16507;51.046;6.406;2023-06-22T04:02:37;19.90;99.90
29575;DHT22;16507;51.046;6.406;2023-06-22T04:05:04;19.90;99.90
29575;DHT22;16507;51.046;6.406;2023-06-22T04:07:29;19.90;99.90
29575;DHT22;16507;51.046;6.406;2023-06-22T04:09:55;19.80;99.90
29575;DHT22;16507;51.046;6.406;2023-06-22T04:12:20;19.80;99.90
29575;DHT22;16507;51.046;6.406;2023-06-22T04:14:46;19.80;99.90
29575;DHT22;16507;51.046;6.406;2023-06-22T04:17:12;19.80;99.90
29575;DHT22;16507;51.046;6.406;2023-06-22T04:19:39;19.80;99.90
29575;DHT22;16507;51.046;6.406;2023-06-22T04:22:05;19.70;99.90
29575;DHT22;16507;51.046;6.406;2023-06-22T04:24:33;19.70;99.90
29575;DHT22;16507;51.046;6.406;2023-06-22T04:26:58;19.60;99.90
29575;DHT22;16507;51.046;6.406;2023-06-22T04:29:28;19.60;99.90
29575;DHT22;16507;51.046;6.406;2023-06-22T04:31:56;19.50;99.90
29575;DHT22;16507;51.046;6.406;2023-06-22T04:34:24;19.50;99.90
29575;DHT22;16507;51.046;6.406;2023-06-22T04:36:53;19.50;99.90
29575;DHT22;16507;51.046;6.406;2023-06-22T04:39:19;19.40;99.90
29575;DHT22;16507;51.046;6.406;2023-06-22T04:41:44;19.40;99.90
29575;DHT22;16507;51.046;6.406;2023-06-22T04:44:15;19.40;99.90
29575;DHT22;16507;51.046;6.406;2023-06-22T04:46:54;19.40;99.90
29575;DHT22;16507;51.046;6.406;2023-06-22T04:49:23;19.40;99.90
29575;DHT22;16507;51.046;6.406;2023-06-22T04:51:58;19.50;99.90
29575;DHT22;16507;51.046;6.406;2023-06-22T04:54:25;19.50;99.90
29575;DHT22;16507;51.046;6.406;2023-06-22T04:56:50;19.50;99.90
29575;DHT22;16507;51.046;6.406;2023-06-22T04:59:22;19.60;99.90
29575;DHT22;16507;51.046;6.406;2023-06-22T05:01:48;19.60;99.90
29575;DHT22;16507;51.046;6.406;2023-06-22T05:04:13;19.60;99.90
29575;DHT22;16507;51.046;6.406;2023-06-22T05:06:39;19.60;99.90
29575;DHT22;16507;51.046;6.406;2023-06-22T05:09:05;19.60;99.90
29575;DHT22;16507;51.046;6.406;2023-06-22T05:11:30;19.60;99.90
29575;DHT22;16507;51.046;6.406;2023-06-22T05:13:56;19.60;99.90
29575;DHT22;16507;51.046;6.406;2023-06-22T05:16:23;19.60;99.90
29575;DHT22;16507;51.046;6.406;2023-06-22T05:18:55;19.60;99.90
29575;DHT22;16507;51.046;6.406;2023-06-22T05:21:27;19.70;99.90
29575;DHT22;16507;51.046;6.406;2023-06-22T05:23:53;19.70;99.90
29575;DHT22;16507;51.046;6.406;2023-06-22T05:26:20;19.70;99.90
29575;DHT22;16507;51.046;6.406;2023-06-22T05:28:47;19.70;99.90
29575;DHT22;16507;51.046;6.406;2023-06-22T05:31:13;19.70;99.90
29575;DHT22;16507;51.046;6.406;2023-06-22T05:33:40;19.70;99.90
29575;DHT22;16507;51.046;6.406;2023-06-22T05:36:06;19.70;99.90
29575;DHT22;16507;51.046;6.406;2023-06-22T05:38:32;19.70;99.90
29575;DHT22;16507;51.046;6.406;2023-06-22T05:40:58;19.80;99.90
29575;DHT22;16507;51.046;6.406;2023-06-22T05:43:23;19.80;99.90
29575;DHT22;16507;51.046;6.406;2023-06-22T05:45:49;19.80;99.90
29575;DHT22;16507;51.046;6.406;2023-06-22T05:48:15;19.80;99.90
29575;DHT22;16507;51.046;6.406;2023-06-22T05:50:40;19.80;99.90
29575;DHT22;16507;51.046;6.406;2023-06-22T05:53:06;19.90;99.90
29575;DHT22;16507;51.046;6.406;2023-06-22T05:55:32;19.90;99.90
29575;DHT22;16507;51.046;6.406;2023-06-22T05:57:58;19.90;99.90
29575;DHT22;16507;51.046;6.406;2023-06-22T06:00:24;20.00;99.90
29575;DHT22;16507;51.046;6.406;2023-06-22T06:02:50;20.00;99.90
29575;DHT22;16507;51.046;6.406;2023-06-22T06:05:15;20.00;99.90
29575;DHT22;16507;51.046;6.406;2023-06-22T06:07:45;20.10;99.90
29575;DHT22;16507;51.046;6.406;2023-06-22T06:10:11;20.10;99.90
29575;DHT22;16507;51.046;6.406;2023-06-22T06:12:37;20.10;99.90
29575;DHT22;16507;51.046;6.406;2023-06-22T06:15:04;20.20;99.90
29575;DHT22;16507;51.046;6.406;2023-06-22T06:17:30;20.20;99.90
29575;DHT22;16507;51.046;6.406;2023-06-22T06:19:56;20.20;99.90
29575;DHT22;16507;51.046;6.406;2023-06-22T06:22:22;20.20;99.90
29575;DHT22;16507;51.046;6.406;2023-06-22T06:24:49;20.20;99.90
29575;DHT22;16507;51.046;6.406;2023-06-22T06:27:15;20.20;99.90
29575;DHT22;16507;51.046;6.406;2023-06-22T06:29:43;20.20;99.90
29575;DHT22;16507;51.046;6.406;2023-06-22T06:32:11;20.20;99.90
29575;DHT22;16507;51.046;6.406;2023-06-22T06:34:36;20.20;99.90
29575;DHT22;16507;51.046;6.406;2023-06-22T06:37:02;20.20;99.90
29575;DHT22;16507;51.046;6.406;2023-06-22T06:39:28;20.20;99.90
29575;DHT22;16507;51.046;6.406;2023-06-22T06:41:53;20.20;99.90
29575;DHT22;16507;51.046;6.406;2023-06-22T06:44:19;20.20;99.90
29575;DHT22;16507;51.046;6.406;2023-06-22T06:46:45;20.20;99.90
29575;DHT22;16507;51.046;6.406;2023-06-22T06:49:10;20.30;99.90
29575;DHT22;16507;51.046;6.406;2023-06-22T06:51:36;20.30;99.90
29575;DHT22;16507;51.046;6.406;2023-06-22T06:54:02;20.40;99.90
29575;DHT22;16507;51.046;6.406;2023-06-22T06:56:28;20.50;99.90
29575;DHT22;16507;51.046;6.406;2023-06-22T06:58:55;20.50;99.90
29575;DHT22;16507;51.046;6.406;2023-06-22T07:01:21;20.60;99.90
29575;DHT22;16507;51.046;6.406;2023-06-22T07:03:46;20.60;99.90
29575;DHT22;16507;51.046;6.406;2023-06-22T07:06:13;20.60;99.90
29575;DHT22;16507;51.046;6.406;2023-06-22T07:08:39;20.80;99.90
29575;DHT22;16507;51.046;6.406;2023-06-22T07:11:05;21.00;99.90
29575;DHT22;16507;51.046;6.406;2023-06-22T07:13:31;21.20;99.90
29575;DHT22;16507;51.046;6.406;2023-06-22T07:15:56;21.30;99.90
29575;DHT22;16507;51.046;6.406;2023-06-22T07:18:24;21.40;99.90
29575;DHT22;16507;51.046;6.406;2023-06-22T07:20:49;21.60;99.90
29575;DHT22;16507;51.046;6.406;2023-06-22T07:23:15;21.60;99.90
29575;DHT22;16507;51.046;6.406;2023-06-22T07:25:41;21.50;99.90
29575;DHT22;16507;51.046;6.406;2023-06-22T07:28:07;21.50;99.90
29575;DHT22;16507;51.046;6.406;2023-06-22T07:30:34;21.60;99.90
29575;DHT22;16507;51.046;6.406;2023-06-22T07:33:00;21.80;99.90
29575;DHT22;16507;51.046;6.406;2023-06-22T07:35:32;22.10;99.90
29575;DHT22;16507;51.046;6.406;2023-06-22T07:37:58;22.20;99.90
29575;DHT22;16507;51.046;6.406;2023-06-22T07:40:24;22.00;99.90
29575;DHT22;16507;51.046;6.406;2023-06-22T07:42:50;22.20;99.90
29575;DHT22;16507;51.046;6.406;2023-06-22T07:45:17;22.40;99.90
29575;DHT22;16507;51.046;6.406;2023-06-22T07:47:43;22.80;99.90
29575;DHT22;16507;51.046;6.406;2023-06-22T07:50:09;22.80;99.90
29575;DHT22;16507;51.046;6.406;2023-06-22T07:52:35;22.90;99.90
29575;DHT22;16507;51.046;6.406;2023-06-22T07:55:01;22.80;99.90
29575;DHT22;16507;51.046;6.406;2023-06-22T07:57:28;22.60;99.90
29575;DHT22;16507;51.046;6.406;2023-06-22T08:00:04;22.40;99.90
29575;DHT22;16507;51.046;6.406;2023-06-22T08:02:45;22.70;99.90
29575;DHT22;16507;51.046;6.406;2023-06-22T08:05:11;23.30;99.90
29575;DHT22;16507;51.046;6.406;2023-06-22T08:07:37;23.40;99.90
29575;DHT22;16507;51.046;6.406;2023-06-22T08:10:04;23.50;99.90
29575;DHT22;16507;51.046;6.406;2023-06-22T08:12:29;23.90;99.90
29575;DHT22;16507;51.046;6.406;2023-06-22T08:14:55;24.20;99.90
29575;DHT22;16507;51.046;6.406;2023-06-22T08:17:25;24.00;99.90
29575;DHT22;16507;51.046;6.406;2023-06-22T08:19:51;23.80;99.90
29575;DHT22;16507;51.046;6.406;2023-06-22T08:22:17;24.00;99.90
29575;DHT22;16507;51.046;6.406;2023-06-22T08:24:43;24.10;99.90
29575;DHT22;16507;51.046;6.406;2023-06-22T08:27:10;24.00;99.90
29575;DHT22;16507;51.046;6.406;2023-06-22T08:29:37;23.90;99.90
29575;DHT22;16507;51.046;6.406;2023-06-22T08:32:03;24.60;99.90
29575;DHT22;16507;51.046;6.406;2023-06-22T08:34:29;24.90;99.90
29575;DHT22;16507;51.046;6.406;2023-06-22T08:36:55;24.90;99.90
29575;DHT22;16507;51.046;6.406;2023-06-22T08:39:20;25.00;99.90
29575;DHT22;16507;51.046;6.406;2023-06-22T08:41:47;25.20;99.90
29575;DHT22;16507;51.046;6.406;2023-06-22T08:44:12;25.40;99.90
29575;DHT22;16507;51.046;6.406;2023-06-22T08:46:39;25.20;99.90
29575;DHT22;16507;51.046;6.406;2023-06-22T08:49:06;25.20;99.90
29575;DHT22;16507;51.046;6.406;2023-06-22T08:51:32;25.20;99.90
29575;DHT22;16507;51.046;6.406;2023-06-22T08:53:57;25.20;99.90
29575;DHT22;16507;51.046;6.406;2023-06-22T08:56:23;25.40;99.90
29575;DHT22;16507;51.046;6.406;2023-06-22T08:58:49;25.60;99.90
29575;DHT22;16507;51.046;6.406;2023-06-22T09:01:14;25.70;99.90
29575;DHT22;16507;51.046;6.406;2023-06-22T09:03:41;26.00;99.90
29575;DHT22;16507;51.046;6.406;2023-06-22T09:06:07;26.10;99.90
29575;DHT22;16507;51.046;6.406;2023-06-22T09:08:35;26.00;99.90
29575;DHT22;16507;51.046;6.406;2023-06-22T09:11:00;26.20;99.90
29575;DHT22;16507;51.046;6.406;2023-06-22T09:13:27;26.60;99.90
29575;DHT22;16507;51.046;6.406;2023-06-22T09:15:53;26.50;99.90
29575;DHT22;16507;51.046;6.406;2023-06-22T09:18:19;26.30;99.90
29575;DHT22;16507;51.046;6.406;2023-06-22T09:20:45;26.20;99.90
29575;DHT22;16507;51.046;6.406;2023-06-22T09:23:11;26.10;99.90
29575;DHT22;16507;51.046;6.406;2023-06-22T09:25:36;26.00;99.90
29575;DHT22;16507;51.046;6.406;2023-06-22T09:28:02;26.00;99.90
29575;DHT22;16507;51.046;6.406;2023-06-22T09:30:28;26.10;99.90
29575;DHT22;16507;51.046;6.406;2023-06-22T09:32:53;26.10;99.90
29575;DHT22;16507;51.046;6.406;2023-06-22T09:35:19;26.10;99.90
29575;DHT22;16507;51.046;6.406;2023-06-22T09:37:45;26.20;99.90
29575;DHT22;16507;51.046;6.406;2023-06-22T09:40:11;26.10;99.90
29575;DHT22;16507;51.046;6.406;2023-06-22T09:42:38;26.00;99.90
29575;DHT22;16507;51.046;6.406;2023-06-22T09:45:05;26.10;99.90
29575;DHT22;16507;51.046;6.406;2023-06-22T09:47:31;26.10;99.90
29575;DHT22;16507;51.046;6.406;2023-06-22T09:49:59;26.10;99.90
29575;DHT22;16507;51.046;6.406;2023-06-22T09:52:25;26.00;99.90
29575;DHT22;16507;51.046;6.406;2023-06-22T09:54:51;26.00;99.90
29575;DHT22;16507;51.046;6.406;2023-06-22T09:57:16;26.00;99.90
29575;DHT22;16507;51.046;6.406;2023-06-22T09:59:42;25.70;99.90
29575;DHT22;16507;51.046;6.406;2023-06-22T10:02:11;25.60;99.90
29575;DHT22;16507;51.046;6.406;2023-06-22T10:04:36;25.50;99.90
29575;DHT22;16507;51.046;6.406;2023-06-22T10:07:02;25.50;99.90
29575;DHT22;16507;51.046;6.406;2023-06-22T10:09:28;25.30;99.90
29575;DHT22;16507;51.046;6.406;2023-06-22T10:11:54;25.10;99.90
29575;DHT22;16507;51.046;6.406;2023-06-22T10:14:20;25.20;99.90
29575;DHT22;16507;51.046;6.406;2023-06-22T10:16:45;25.20;99.90
29575;DHT22;16507;51.046;6.406;2023-06-22T10:19:11;25.10;99.90
29575;DHT22;16507;51.046;6.406;2023-06-22T10:21:37;25.10;99.90
29575;DHT22;16507;51.046;6.406;2023-06-22T10:24:03;25.20;99.90
29575;DHT22;16507;51.046;6.406;2023-06-22T10:26:35;25.30;99.90
29575;DHT22;16507;51.046;6.406;2023-06-22T10:29:04;25.30;99.90
29575;DHT22;16507;51.046;6.406;2023-06-22T10:31:29;25.30;99.90
29575;DHT22;16507;51.046;6.406;2023-06-22T10:33:55;25.20;99.90
29575;DHT22;16507;51.046;6.406;2023-06-22T10:36:22;25.10;99.90
29575;DHT22;16507;51.046;6.406;2023-06-22T10:38:48;24.80;99.90
29575;DHT22;16507;51.046;6.406;2023-06-22T10:41:14;24.60;99.90
29575;DHT22;16507;51.046;6.406;2023-06-22T10:43:40;24.40;99.90
29575;DHT22;16507;51.046;6.406;2023-06-22T10:46:08;24.20;99.90
29575;DHT22;16507;51.046;6.406;2023-06-22T10:48:33;24.10;99.90
29575;DHT22;16507;51.046;6.406;2023-06-22T10:50:59;23.90;99.90
29575;DHT22;16507;51.046;6.406;2023-06-22T10:53:25;23.70;99.90
29575;DHT22;16507;51.046;6.406;2023-06-22T10:55:50;23.40;99.90
29575;DHT22;16507;51.046;6.406;2023-06-22T10:58:18;23.20;99.90
29575;DHT22;16507;51.046;6.406;2023-06-22T11:00:44;23.10;99.90
29575;DHT22;16507;51.046;6.406;2023-06-22T11:03:09;22.90;99.90
29575;DHT22;16507;51.046;6.406;2023-06-22T11:05:35;22.70;99.90
29575;DHT22;16507;51.046;6.406;2023-06-22T11:08:01;22.70;99.90
29575;DHT22;16507;51.046;6.406;2023-06-22T11:10:26;22.50;99.90
29575;DHT22;16507;51.046;6.406;2023-06-22T11:12:52;22.50;99.90
29575;DHT22;16507;51.046;6.406;2023-06-22T11:15:18;22.10;99.90
29575;DHT22;16507;51.046;6.406;2023-06-22T11:17:44;21.90;99.90
29575;DHT22;16507;51.046;6.406;2023-06-22T11:20:13;21.70;99.90
29575;DHT22;16507;51.046;6.406;2023-06-22T11:22:42;21.70;99.90
29575;DHT22;16507;51.046;6.406;2023-06-22T11:25:08;21.60;99.90
29575;DHT22;16507;51.046;6.406;2023-06-22T11:27:34;21.60;99.90
29575;DHT22;16507;51.046;6.406;2023-06-22T11:29:59;21.60;99.90
29575;DHT22;16507;51.046;6.406;2023-06-22T11:32:25;21.70;99.90
29575;DHT22;16507;51.046;6.406;2023-06-22T11:34:51;21.80;99.90
29575;DHT22;16507;51.046;6.406;2023-06-22T11:37:17;22.00;99.90
29575;DHT22;16507;51.046;6.406;2023-06-22T11:39:45;22.30;99.90
29575;DHT22;16507;51.046;6.406;2023-06-22T11:42:11;22.50;99.90
29575;DHT22;16507;51.046;6.406;2023-06-22T11:44:37;22.60;99.90
29575;DHT22;16507;51.046;6.406;2023-06-22T11:47:02;22.90;99.90
29575;DHT22;16507;51.046;6.406;2023-06-22T11:49:30;23.50;99.90
29575;DHT22;16507;51.046;6.406;2023-06-22T11:51:56;23.70;99.90
29575;DHT22;16507;51.046;6.406;2023-06-22T11:54:21;23.30;99.90
29575;DHT22;16507;51.046;6.406;2023-06-22T11:56:47;22.70;99.90
29575;DHT22;16507;51.046;6.406;2023-06-22T11:59:13;22.60;99.90
29575;DHT22;16507;51.046;6.406;2023-06-22T12:01:39;22.90;99.90
29575;DHT22;16507;51.046;6.406;2023-06-22T12:04:04;22.90;99.90
29575;DHT22;16507;51.046;6.406;2023-06-22T12:06:32;23.20;99.90
29575;DHT22;16507;51.046;6.406;2023-06-22T12:08:58;23.00;99.90
29575;DHT22;16507;51.046;6.406;2023-06-22T12:11:24;22.80;99.90
29575;DHT22;16507;51.046;6.406;2023-06-22T12:13:49;22.80;99.90
29575;DHT22;16507;51.046;6.406;2023-06-22T12:16:15;22.70;99.90
29575;DHT22;16507;51.046;6.406;2023-06-22T12:18:40;22.70;99.90
29575;DHT22;16507;51.046;6.406;2023-06-22T12:21:06;22.40;99.90
29575;DHT22;16507;51.046;6.406;2023-06-22T12:23:32;22.40;99.90
29575;DHT22;16507;51.046;6.406;2023-06-22T12:25:57;22.30;99.90
29575;DHT22;16507;51.046;6.406;2023-06-22T12:28:24;22.20;99.90
29575;DHT22;16507;51.046;6.406;2023-06-22T12:30:50;22.30;99.90
29575;DHT22;16507;51.046;6.406;2023-06-22T12:33:16;22.50;99.90
29575;DHT22;16507;51.046;6.406;2023-06-22T12:35:41;22.60;99.90
29575;DHT22;16507;51.046;6.406;2023-06-22T12:38:07;22.70;99.90
29575;DHT22;16507;51.046;6.406;2023-06-22T12:40:33;22.70;99.90
29575;DHT22;16507;51.046;6.406;2023-06-22T12:42:59;22.60;99.90
29575;DHT22;16507;51.046;6.406;2023-06-22T12:45:24;22.70;99.90
29575;DHT22;16507;51.046;6.406;2023-06-22T12:47:54;22.70;99.90
29575;DHT22;16507;51.046;6.406;2023-06-22T12:50:20;22.90;99.90
29575;DHT22;16507;51.046;6.406;2023-06-22T12:52:45;22.80;99.90
29575;DHT22;16507;51.046;6.406;2023-06-22T12:55:11;22.80;99.90
29575;DHT22;16507;51.046;6.406;2023-06-22T12:57:37;22.90;99.90
29575;DHT22;16507;51.046;6.406;2023-06-22T13:00:02;23.10;99.90
29575;DHT22;16507;51.046;6.406;2023-06-22T13:02:30;23.00;99.90
29575;DHT22;16507;51.046;6.406;2023-06-22T13:04:55;22.90;99.90
29575;DHT22;16507;51.046;6.406;2023-06-22T13:07:21;23.10;99.90
29575;DHT22;16507;51.046;6.406;2023-06-22T13:09:50;23.10;99.90
29575;DHT22;16507;51.046;6.406;2023-06-22T13:12:19;23.00;99.90
29575;DHT22;16507;51.046;6.406;2023-06-22T13:14:45;23.30;99.90
29575;DHT22;16507;51.046;6.406;2023-06-22T13:17:12;23.30;99.90
29575;DHT22;16507;51.046;6.406;2023-06-22T13:19:38;23.30;99.90
29575;DHT22;16507;51.046;6.406;2023-06-22T13:22:04;23.10;99.90
29575;DHT22;16507;51.046;6.406;2023-06-22T13:24:30;23.00;99.90
29575;DHT22;16507;51.046;6.406;2023-06-22T13:26:55;23.00;99.90
29575;DHT22;16507;51.046;6.406;2023-06-22T13:29:21;22.70;99.90
29575;DHT22;16507;51.046;6.406;2023-06-22T13:31:47;22.70;99.90
29575;DHT22;16507;51.046;6.406;2023-06-22T13:34:12;22.40;99.90
29575;DHT22;16507;51.046;6.406;2023-06-22T13:36:38;22.40;99.90
29575;DHT22;16507;51.046;6.406;2023-06-22T13:39:04;22.20;99.90
29575;DHT22;16507;51.046;6.406;2023-06-22T13:41:29;22.10;99.90
29575;DHT22;16507;51.046;6.406;2023-06-22T13:43:55;21.90;99.90
29575;DHT22;16507;51.046;6.406;2023-06-22T13:46:20;22.00;99.90
29575;DHT22;16507;51.046;6.406;2023-06-22T13:48:46;22.00;99.90
29575;DHT22;16507;51.046;6.406;2023-06-22T13:51:11;22.00;99.90
29575;DHT22;16507;51.046;6.406;2023-06-22T13:53:37;21.90;99.90
29575;DHT22;16507;51.046;6.406;2023-06-22T13:56:03;22.00;99.90
29575;DHT22;16507;51.046;6.406;2023-06-22T13:58:32;21.90;99.90
29575;DHT22;16507;51.046;6.406;2023-06-22T14:00:57;21.90;99.90
29575;DHT22;16507;51.046;6.406;2023-06-22T14:03:23;22.00;99.90
29575;DHT22;16507;51.046;6.406;2023-06-22T14:05:49;22.00;99.90
29575;DHT22;16507;51.046;6.406;2023-06-22T14:08:14;21.90;99.90
29575;DHT22;16507;51.046;6.406;2023-06-22T14:10:40;21.90;99.90
29575;DHT22;16507;51.046;6.406;2023-06-22T14:13:06;22.00;99.90
29575;DHT22;16507;51.046;6.406;2023-06-22T14:15:32;22.10;99.90
29575;DHT22;16507;51.046;6.406;2023-06-22T14:17:57;22.10;99.90
29575;DHT22;16507;51.046;6.406;2023-06-22T14:20:23;22.00;99.90
29575;DHT22;16507;51.046;6.406;2023-06-22T14:22:48;21.90;99.90
29575;DHT22;16507;51.046;6.406;2023-06-22T14:25:14;22.00;99.90
29575;DHT22;16507;51.046;6.406;2023-06-22T14:27:39;21.90;99.90
29575;DHT22;16507;51.046;6.406;2023-06-22T14:30:06;21.90;99.90
29575;DHT22;16507;51.046;6.406;2023-06-22T14:32:31;21.90;99.90
29575;DHT22;16507;51.046;6.406;2023-06-22T14:34:57;21.80;99.90
29575;DHT22;16507;51.046;6.406;2023-06-22T14:37:22;21.80;99.90
29575;DHT22;16507;51.046;6.406;2023-06-22T14:39:48;21.80;99.90
29575;DHT22;16507;51.046;6.406;2023-06-22T14:42:17;21.70;99.90
29575;DHT22;16507;51.046;6.406;2023-06-22T14:44:45;21.70;99.90
29575;DHT22;16507;51.046;6.406;2023-06-22T14:47:10;21.70;99.90
29575;DHT22;16507;51.046;6.406;2023-06-22T14:49:36;21.70;99.90
29575;DHT22;16507;51.046;6.406;2023-06-22T14:52:02;21.60;99.90
29575;DHT22;16507;51.046;6.406;2023-06-22T14:54:27;21.60;99.90
29575;DHT22;16507;51.046;6.406;2023-06-22T14:56:53;21.50;99.90
29575;DHT22;16507;51.046;6.406;2023-06-22T14:59:19;21.60;99.90
29575;DHT22;16507;51.046;6.406;2023-06-22T15:01:44;21.50;99.90
29575;DHT22;16507;51.046;6.406;2023-06-22T15:04:10;21.50;99.90
29575;DHT22;16507;51.046;6.406;2023-06-22T15:06:35;21.50;99.90
29575;DHT22;16507;51.046;6.406;2023-06-22T15:09:01;21.40;99.90
29575;DHT22;16507;51.046;6.406;2023-06-22T15:11:27;21.50;99.90
29575;DHT22;16507;51.046;6.406;2023-06-22T15:13:52;21.20;99.90
29575;DHT22;16507;51.046;6.406;2023-06-22T15:16:18;21.00;99.90
29575;DHT22;16507;51.046;6.406;2023-06-22T15:18:43;20.90;99.90
29575;DHT22;16507;51.046;6.406;2023-06-22T15:21:10;21.00;99.90
29575;DHT22;16507;51.046;6.406;2023-06-22T15:23:36;20.90;99.90
29575;DHT22;16507;51.046;6.406;2023-06-22T15:26:03;20.80;99.90
29575;DHT22;16507;51.046;6.406;2023-06-22T15:28:32;20.70;99.90